Time;durP1;ratioP1;P1;durP2;ratioP2;P2;SDS_P1;SDS_P2;PMS_P1;PMS_P2;Temp;Humidity;BMP_temperature;BMP_pressure;BME280_temperature;BME280_humidity;BME280_pressure;Samples;Min_cycle;Max_cycle;Signal;HPM_P1;HPM_P2
2022/04/10 00:01:35;;;;;;;10.63;3.10;;;;;;;13.68;77.77;99309.88;5010131;28;20409;-78
2022/04/10 00:04:01;;;;;;;12.48;4.63;;;;;;;13.18;81.92;99303.50;5010224;28;20492;-77
2022/04/10 00:06:26;;;;;;;11.95;3.20;;;;;;;12.91;84.67;99295.50;5010212;28;20026;-76
2022/04/10 00:08:52;;;;;;;12.50;4.00;;;;;;;12.83;85.48;99286.78;5010986;28;20467;-77
2022/04/10 00:11:18;;;;;;;12.55;3.40;;;;;;;13.04;84.86;99293.88;5011077;28;20029;-77
2022/04/10 00:13:44;;;;;;;12.48;3.58;;;;;;;12.72;86.27;99255.66;5011728;28;20021;-76
2022/04/10 00:16:10;;;;;;;12.57;3.95;;;;;;;13.17;85.44;99293.97;5011391;28;20064;-75
2022/04/10 00:18:37;;;;;;;12.60;4.25;;;;;;;13.36;83.61;99289.81;5011507;28;20482;-77
2022/04/10 00:21:04;;;;;;;12.57;3.42;;;;;;;13.56;82.20;99289.97;5013888;28;20069;-76
2022/04/10 00:23:30;;;;;;;11.00;4.10;;;;;;;13.70;80.32;99287.44;5010852;28;20037;-76
2022/04/10 00:25:55;;;;;;;16.02;4.57;;;;;;;13.79;79.49;99295.25;5016123;28;20748;-77
2022/04/10 00:28:20;;;;;;;14.35;4.32;;;;;;;13.73;78.13;99279.66;5018973;28;20456;-77
2022/04/10 00:30:46;;;;;;;12.95;3.85;;;;;;;13.75;78.06;99283.97;5011139;28;20030;-77
2022/04/10 00:33:11;;;;;;;9.95;3.78;;;;;;;13.75;77.39;99288.31;5010270;28;20101;-76
2022/04/10 00:35:37;;;;;;;11.25;4.10;;;;;;;13.77;77.03;99303.88;5010655;28;20065;-77
2022/04/10 00:38:03;;;;;;;10.70;3.58;;;;;;;13.78;77.56;99301.28;5010106;28;20033;-77
2022/04/10 00:40:28;;;;;;;12.00;3.90;;;;;;;13.85;77.59;99303.06;5010830;28;20092;-76
2022/04/10 00:42:54;;;;;;;11.82;3.72;;;;;;;13.76;77.51;99300.44;5009281;28;20108;-76
2022/04/10 00:45:22;;;;;;;10.95;4.07;;;;;;;13.85;76.92;99303.06;5010390;28;20553;-78
2022/04/10 00:47:48;;;;;;;13.95;4.00;;;;;;;13.84;76.61;99292.69;5012145;28;20521;-78
2022/04/10 00:50:15;;;;;;;16.20;4.63;;;;;;;13.86;77.04;99288.38;5010790;28;20017;-76
2022/04/10 00:52:42;;;;;;;10.13;4.60;;;;;;;13.75;76.81;99245.06;5010250;28;20040;-77
2022/04/10 00:55:08;;;;;;;16.92;4.65;;;;;;;14.06;76.23;99281.53;5010150;28;20049;-77
2022/04/10 00:57:35;;;;;;;12.13;4.28;;;;;;;14.14;76.39;99294.53;5010419;28;20116;-75
2022/04/10 01:00:01;;;;;;;14.45;4.22;;;;;;;13.99;75.98;99245.19;5010340;28;20493;-77
2022/04/10 01:02:26;;;;;;;8.93;3.88;;;;;;;14.17;75.27;99283.31;5010620;28;20076;-74
2022/04/10 01:04:52;;;;;;;15.55;4.63;;;;;;;13.99;75.42;99269.38;5010049;28;20477;-75
2022/04/10 01:07:18;;;;;;;12.65;3.70;;;;;;;13.95;75.57;99290.16;5010059;28;20462;-74
2022/04/10 01:09:45;;;;;;;14.20;3.92;;;;;;;13.89;76.83;99288.38;5010629;28;20026;-77
2022/04/10 01:12:11;;;;;;;13.35;4.03;;;;;;;13.79;77.35;99284.03;5010325;28;20041;-76
2022/04/10 01:14:38;;;;;;;12.70;4.70;;;;;;;13.83;77.30;99304.81;5010374;28;20025;-77
2022/04/10 01:17:07;;;;;;;12.07;3.95;;;;;;;13.48;77.90;99286.44;5010201;28;20037;-78
2022/04/10 01:19:34;;;;;;;12.50;4.00;;;;;;;13.38;78.64;99317.50;5009559;28;20022;-77
2022/04/10 01:22:04;;;;;;;12.63;4.28;;;;;;;13.23;78.46;99317.34;5010092;28;20088;-75
2022/04/10 01:24:31;;;;;;;13.02;4.20;;;;;;;13.02;78.40;99312.84;5010562;28;20076;-77
2022/04/10 01:26:56;;;;;;;13.73;3.42;;;;;;;12.93;78.27;99287.75;5010161;28;20382;-77
2022/04/10 01:29:22;;;;;;;12.38;4.43;;;;;;;12.51;81.46;99309.78;5010294;28;20083;-77
2022/04/10 01:31:47;;;;;;;14.00;4.65;;;;;;;12.06;87.91;99292.06;5010471;28;20374;-76
2022/04/10 01:34:16;;;;;;;13.30;4.65;;;;;;;11.88;91.96;99303.00;5009606;28;20022;-75
2022/04/10 01:36:43;;;;;;;12.30;4.30;;;;;;;11.70;91.10;99269.16;5010560;28;20045;-78
2022/04/10 01:39:10;;;;;;;13.70;3.97;;;;;;;11.86;91.76;99304.69;5010144;28;20029;-76
2022/04/10 01:41:36;;;;;;;17.60;5.15;;;;;;;11.93;91.67;99306.53;5010788;28;20037;-73
2022/04/10 01:44:04;;;;;;;12.80;4.25;;;;;;;12.06;90.70;99296.34;5010637;28;20515;-74
2022/04/10 01:46:31;;;;;;;10.00;4.00;;;;;;;12.22;90.36;99300.84;5011457;28;20030;-77
2022/04/10 01:48:58;;;;;;;17.35;4.57;;;;;;;12.37;89.22;99310.50;5028262;28;20425;-74
2022/04/10 01:51:24;;;;;;;17.52;5.13;;;;;;;12.57;89.63;99322.81;5030509;28;20021;-75
2022/04/10 01:53:51;;;;;;;12.25;4.63;;;;;;;12.70;86.88;99310.88;5030773;28;20025;-72
2022/04/10 01:56:17;;;;;;;15.43;4.57;;;;;;;12.74;87.64;99290.16;5030207;28;20125;-73
2022/04/10 01:58:45;;;;;;;12.05;4.25;;;;;;;12.47;86.66;99288.19;5024718;28;20096;-73
2022/04/10 02:01:13;;;;;;;11.75;3.80;;;;;;;12.65;86.29;99320.28;5008399;28;20052;-76
2022/04/10 02:03:39;;;;;;;15.00;4.18;;;;;;;12.66;86.18;99312.56;5009872;28;20469;-76
2022/04/10 02:06:06;;;;;;;15.32;4.03;;;;;;;12.71;86.86;99318.66;5008788;28;20060;-77
2022/04/10 02:08:33;;;;;;;15.23;4.13;;;;;;;12.69;86.22;99315.16;5010233;28;20065;-78
2022/04/10 02:10:59;;;;;;;13.05;4.45;;;;;;;12.67;84.85;99316.00;5009774;28;20466;-77
2022/04/10 02:13:24;;;;;;;16.80;4.65;;;;;;;12.17;88.30;99318.03;5009538;28;20045;-77
2022/04/10 02:15:50;;;;;;;13.70;4.15;;;;;;;11.43;92.66;99305.00;5009448;28;20033;-75
2022/04/10 02:18:16;;;;;;;14.95;4.22;;;;;;;11.24;95.04;99302.97;5009452;28;20057;-75
2022/04/10 02:20:42;;;;;;;12.48;4.15;;;;;;;10.89;97.39;99295.53;5009702;28;20030;-71
2022/04/10 02:23:08;;;;;;;15.68;4.05;;;;;;;10.67;99.23;99310.66;5010460;28;20030;-74
2022/04/10 02:25:34;;;;;;;15.27;4.60;;;;;;;10.67;99.71;99314.09;5009825;28;20069;-73
2022/04/10 02:27:59;;;;;;;17.15;5.97;;;;;;;10.54;99.30;99304.38;5009347;28;20083;-75
2022/04/10 02:30:25;;;;;;;14.50;4.55;;;;;;;10.62;99.54;99317.47;5009689;28;20028;-75
2022/04/10 02:32:50;;;;;;;10.93;4.50;;;;;;;10.47;99.84;99310.31;5009198;28;20497;-77
2022/04/10 02:35:16;;;;;;;13.73;4.60;;;;;;;10.53;99.66;99313.00;5008364;28;20034;-76
2022/04/10 02:37:45;;;;;;;10.18;4.50;;;;;;;10.46;98.68;99291.34;5009655;28;20035;-78
2022/04/10 02:40:14;;;;;;;12.18;4.15;;;;;;;10.93;97.50;99307.63;5009476;28;20398;-79
2022/04/10 02:42:40;;;;;;;11.88;4.47;;;;;;;11.13;94.84;99303.69;5008104;28;20033;-78
2022/04/10 02:45:07;;;;;;;14.75;4.47;;;;;;;11.27;93.17;99309.06;5008722;28;20033;-78
2022/04/10 02:47:32;;;;;;;16.60;5.00;;;;;;;11.36;91.78;99312.63;5009516;28;20033;-78
2022/04/10 02:49:58;;;;;;;11.18;4.10;;;;;;;11.45;89.68;99292.97;5020702;28;20022;-74
2022/04/10 02:52:24;;;;;;;13.93;4.47;;;;;;;11.64;89.75;99298.41;5013525;28;20022;-73
2022/04/10 02:54:49;;;;;;;15.48;4.93;;;;;;;11.93;89.97;99327.22;5033340;28;20021;-74
2022/04/10 02:57:15;;;;;;;10.88;4.05;;;;;;;12.03;90.32;99333.41;5032082;28;20032;-75
2022/04/10 02:59:40;;;;;;;10.85;3.90;;;;;;;11.82;90.60;99318.44;5033449;28;20472;-74
2022/04/10 03:02:06;;;;;;;19.17;4.63;;;;;;;11.64;90.23;99321.66;5033376;28;20482;-74
2022/04/10 03:04:31;;;;;;;15.75;5.20;;;;;;;11.54;90.37;99317.19;5033116;28;20030;-76
2022/04/10 03:06:57;;;;;;;14.73;5.13;;;;;;;11.20;91.54;99275.34;5033129;28;20029;-76
2022/04/10 03:09:22;;;;;;;17.48;5.22;;;;;;;11.36;92.79;99313.50;5033037;28;20060;-76
2022/04/10 03:11:48;;;;;;;25.35;5.22;;;;;;;11.58;92.07;99308.66;5033200;28;20025;-77
2022/04/10 03:14:14;;;;;;;20.33;5.32;;;;;;;11.49;91.66;99310.25;5032871;28;20037;-75
2022/04/10 03:16:39;;;;;;;24.77;5.22;;;;;;;11.58;91.52;99327.59;5033180;28;20030;-75
2022/04/10 03:19:05;;;;;;;17.48;4.78;;;;;;;11.54;91.60;99301.69;5033112;28;20052;-75
2022/04/10 03:21:30;;;;;;;18.38;5.05;;;;;;;11.56;93.24;99329.28;5031780;28;20128;-77
2022/04/10 03:23:56;;;;;;;20.95;4.65;;;;;;;11.66;91.93;99314.78;5032843;28;20040;-76
2022/04/10 03:26:21;;;;;;;19.58;4.95;;;;;;;11.83;90.85;99320.19;5032922;28;20588;-77
2022/04/10 03:28:47;;;;;;;13.25;4.30;;;;;;;11.76;89.87;99303.75;5032593;28;20454;-74
2022/04/10 03:31:12;;;;;;;14.57;4.45;;;;;;;11.75;89.37;99314.94;5032999;28;20029;-74
2022/04/10 03:33:38;;;;;;;21.15;4.43;;;;;;;11.28;90.18;99299.59;5032712;28;20382;-74
2022/04/10 03:36:04;;;;;;;14.35;3.95;;;;;;;10.83;93.28;99311.81;5032687;28;20112;-74
2022/04/10 03:38:29;;;;;;;18.35;4.75;;;;;;;10.71;95.18;99325.34;5031505;28;20163;-74
2022/04/10 03:40:55;;;;;;;15.48;5.18;;;;;;;10.47;97.34;99307.72;5032240;28;20124;-74
2022/04/10 03:43:20;;;;;;;10.90;4.30;;;;;;;10.28;98.30;99303.88;5032431;28;20311;-72
2022/04/10 03:45:46;;;;;;;10.90;4.25;;;;;;;9.91;100.00;99285.97;5032489;28;20742;-74
2022/04/10 03:48:12;;;;;;;15.57;4.75;;;;;;;9.97;100.00;99313.56;5032535;28;20029;-76
2022/04/10 03:50:38;;;;;;;15.82;4.93;;;;;;;9.90;100.00;99325.47;5032329;28;20025;-75
2022/04/10 03:53:06;;;;;;;17.95;5.00;;;;;;;9.90;100.00;99319.47;5032120;28;20051;-74
2022/04/10 03:55:35;;;;;;;16.40;4.47;;;;;;;9.98;100.00;99315.31;5032000;28;20037;-76
2022/04/10 03:58:01;;;;;;;18.65;5.70;;;;;;;10.18;100.00;99318.28;5030732;28;20064;-77
2022/04/10 04:00:27;;;;;;;12.32;4.80;;;;;;;10.23;100.00;99324.44;5031674;28;20025;-75
2022/04/10 04:02:52;;;;;;;21.85;5.57;;;;;;;10.16;100.00;99317.41;5032272;28;20036;-76
2022/04/10 04:05:18;;;;;;;15.00;5.25;;;;;;;10.09;100.00;99318.13;5031970;28;20058;-75
2022/04/10 04:07:43;;;;;;;20.50;5.47;;;;;;;10.32;100.00;99321.16;5032063;28;20021;-74
2022/04/10 04:10:09;;;;;;;17.00;4.72;;;;;;;10.52;100.00;99321.56;5032041;28;20033;-76
2022/04/10 04:12:35;;;;;;;14.43;5.20;;;;;;;10.80;100.00;99332.38;5032321;28;20469;-74
2022/04/10 04:15:01;;;;;;;13.77;5.13;;;;;;;10.61;100.00;99302.81;5031732;28;20030;-74
2022/04/10 04:17:26;;;;;;;16.00;4.43;;;;;;;10.66;100.00;99329.56;5032025;28;20030;-73
2022/04/10 04:19:53;;;;;;;13.43;4.35;;;;;;;10.51;100.00;99305.19;5031977;28;20057;-76
2022/04/10 04:22:19;;;;;;;19.58;5.68;;;;;;;10.56;100.00;99312.19;5031754;28;20022;-76
2022/04/10 04:24:45;;;;;;;19.65;5.22;;;;;;;10.47;100.00;99246.66;5031675;28;20030;-75
2022/04/10 04:27:10;;;;;;;17.58;5.80;;;;;;;10.91;100.00;99330.00;5031634;28;20456;-74
2022/04/10 04:29:36;;;;;;;17.08;4.90;;;;;;;10.97;100.00;99315.47;5029086;28;20044;-76
2022/04/10 04:32:02;;;;;;;17.85;5.20;;;;;;;11.11;100.00;99322.56;5030879;28;20420;-77
2022/04/10 04:34:28;;;;;;;13.82;5.13;;;;;;;11.13;100.00;99326.94;5031541;28;20025;-76
2022/04/10 04:36:53;;;;;;;19.17;5.45;;;;;;;11.13;100.00;99315.75;5031412;28;20032;-77
2022/04/10 04:39:19;;;;;;;18.50;6.03;;;;;;;11.38;100.00;99316.97;5031405;28;20413;-77
2022/04/10 04:41:45;;;;;;;19.17;5.53;;;;;;;11.35;100.00;99304.00;5031395;28;20536;-76
2022/04/10 04:44:10;;;;;;;18.05;5.88;;;;;;;11.11;100.00;99263.19;5031280;28;20045;-76
2022/04/10 04:46:36;;;;;;;16.55;5.95;;;;;;;11.07;100.00;99254.50;5031491;28;20034;-74
2022/04/10 04:49:02;;;;;;;16.30;5.45;;;;;;;11.38;100.00;99305.78;5031472;28;20531;-76
2022/04/10 04:51:28;;;;;;;15.65;5.35;;;;;;;11.42;100.00;99299.81;5031209;28;20409;-74
2022/04/10 04:53:54;;;;;;;16.90;5.47;;;;;;;11.33;100.00;99291.06;5031248;28;20025;-76
2022/04/10 04:56:19;;;;;;;20.83;5.63;;;;;;;11.61;99.22;99316.44;5030832;28;20021;-76
2022/04/10 04:58:47;;;;;;;20.05;5.15;;;;;;;11.81;98.34;99316.72;5031326;28;20030;-76
2022/04/10 05:01:13;;;;;;;13.82;4.55;;;;;;;12.01;97.05;99316.13;5031090;28;20021;-73
2022/04/10 05:03:38;;;;;;;24.05;5.13;;;;;;;12.22;96.18;99312.94;5031018;28;20025;-74
2022/04/10 05:06:04;;;;;;;16.02;4.97;;;;;;;12.33;95.88;99298.41;5029673;28;20018;-74
2022/04/10 05:08:29;;;;;;;17.35;5.30;;;;;;;12.46;96.06;99308.03;5029718;28;20029;-74
2022/04/10 05:10:55;;;;;;;18.08;4.68;;;;;;;12.58;95.44;99314.19;5030714;28;20033;-76
2022/04/10 05:13:21;;;;;;;18.70;5.07;;;;;;;12.44;95.85;99275.22;5030834;28;20095;-76
2022/04/10 05:15:46;;;;;;;18.45;5.22;;;;;;;12.65;95.29;99290.09;5030995;28;20029;-76
2022/04/10 05:18:13;;;;;;;16.15;4.55;;;;;;;12.70;95.25;99303.94;5030908;28;20099;-76
2022/04/10 05:20:39;;;;;;;16.23;4.68;;;;;;;12.71;94.06;99303.09;5030717;28;20105;-74
2022/04/10 05:23:05;;;;;;;17.63;5.18;;;;;;;12.86;95.03;99293.72;5030629;28;20036;-77
2022/04/10 05:25:30;;;;;;;16.10;4.60;;;;;;;12.81;95.33;99265.22;5030688;28;20059;-73
2022/04/10 05:27:56;;;;;;;11.52;5.00;;;;;;;13.11;95.73;99287.88;5030900;28;20480;-78
2022/04/10 05:30:22;;;;;;;11.50;5.10;;;;;;;13.25;94.12;99289.72;5030721;28;20480;-76
2022/04/10 05:32:48;;;;;;;17.02;5.03;;;;;;;13.38;93.78;99296.75;5030683;28;20539;-77
2022/04/10 05:35:13;;;;;;;21.48;6.03;;;;;;;13.45;92.34;99291.63;5030624;28;20029;-74
2022/04/10 05:37:39;;;;;;;15.57;4.05;;;;;;;13.52;91.33;99283.88;5028222;28;20117;-76
2022/04/10 05:40:07;;;;;;;17.73;4.75;;;;;;;13.69;92.04;99288.28;5030447;28;20036;-73
2022/04/10 05:42:36;;;;;;;17.05;5.13;;;;;;;13.71;90.70;99290.03;5030580;28;20037;-77
2022/04/10 05:45:03;;;;;;;;;;;;;;;13.74;91.83;99284.88;5030956;28;20049;-73
2022/04/10 05:47:28;;;;;;;18.33;5.53;;;;;;;13.80;93.48;99294.41;5030404;28;19917;-77
2022/04/10 05:49:54;;;;;;;22.70;5.70;;;;;;;13.75;92.30;99277.94;5030469;28;20044;-75
2022/04/10 05:52:19;;;;;;;14.82;5.60;;;;;;;13.91;92.41;99287.53;5030671;28;20033;-77
2022/04/10 05:54:45;;;;;;;18.10;5.28;;;;;;;13.90;92.56;99258.97;5030171;28;20021;-75
2022/04/10 05:57:10;;;;;;;21.45;4.80;;;;;;;14.12;92.48;99291.06;5030534;28;20460;-73
2022/04/10 05:59:35;;;;;;;20.25;5.95;;;;;;;14.20;93.00;99286.75;5029280;28;20050;-72
2022/04/10 06:02:01;;;;;;;24.77;6.22;;;;;;;14.19;92.42;99253.91;5030009;28;20399;-75
2022/04/10 06:04:26;;;;;;;28.10;6.50;;;;;;;14.52;93.24;99287.72;5030442;28;20053;-72
2022/04/10 06:06:52;;;;;;;21.65;6.40;;;;;;;14.39;92.89;99258.25;5030544;28;20029;-72
2022/04/10 06:09:20;;;;;;;20.13;5.60;;;;;;;14.65;92.17;99297.28;5030136;28;20413;-72
2022/04/10 06:11:46;;;;;;;16.88;5.43;;;;;;;14.76;92.25;99286.91;5030240;28;20017;-77
2022/04/10 06:14:11;;;;;;;20.10;5.95;;;;;;;14.80;92.06;99260.06;5030071;28;20091;-77
2022/04/10 06:16:37;;;;;;;25.98;6.03;;;;;;;14.99;93.14;99270.44;5030403;28;20409;-76
2022/04/10 06:19:02;;;;;;;21.67;7.10;;;;;;;15.10;93.29;99276.50;5029973;28;20030;-75
2022/04/10 06:21:28;;;;;;;23.58;5.80;;;;;;;15.22;89.93;99275.63;5030183;28;20022;-73
2022/04/10 06:23:53;;;;;;;26.02;6.10;;;;;;;15.36;88.70;99288.63;5031300;28;20079;-72
2022/04/10 06:26:19;;;;;;;18.15;5.47;;;;;;;15.39;88.12;99292.94;5034054;28;20187;-75
2022/04/10 06:28:44;;;;;;;72.47;41.08;;;;;;;15.43;88.22;99287.75;5034120;28;20044;-72
2022/04/10 06:31:09;;;;;;;33.72;12.77;;;;;;;15.46;88.54;99276.47;5034035;28;20030;-77
2022/04/10 06:33:35;;;;;;;17.90;5.28;;;;;;;15.42;89.83;99296.41;5033793;28;20060;-75
2022/04/10 06:36:01;;;;;;;18.42;5.82;;;;;;;15.42;89.44;99285.16;5033742;28;20056;-75
2022/04/10 06:38:26;;;;;;;11.90;4.88;;;;;;;15.46;92.28;99297.28;5035691;28;20536;-72
2022/04/10 06:40:52;;;;;;;13.45;3.65;;;;;;;15.31;91.76;99275.63;5048449;28;20162;-78
2022/04/10 06:43:19;;;;;;;17.85;4.53;;;;;;;15.54;92.43;99303.34;5053593;28;20045;-74
2022/04/10 06:45:46;;;;;;;17.17;5.20;;;;;;;15.52;89.78;99271.25;5041164;28;20038;-75
2022/04/10 06:48:12;;;;;;;15.73;4.78;;;;;;;15.70;89.39;99296.34;5043104;28;20510;-75
2022/04/10 06:50:38;;;;;;;22.13;6.10;;;;;;;15.76;88.90;99295.47;5043127;28;20025;-76
2022/04/10 06:53:04;;;;;;;18.08;5.28;;;;;;;15.91;88.57;99300.63;5042039;28;20020;-73
2022/04/10 06:55:31;;;;;;;19.27;5.53;;;;;;;15.94;87.38;99289.38;5044020;28;20025;-75
2022/04/10 06:57:57;;;;;;;23.13;5.65;;;;;;;16.05;88.02;99295.41;5032363;28;20513;-75
2022/04/10 07:00:22;;;;;;;22.98;6.03;;;;;;;16.07;88.07;99296.25;5041035;28;20116;-75
2022/04/10 07:02:48;;;;;;;20.75;5.97;;;;;;;16.13;87.28;99298.81;5044185;28;20418;-75
2022/04/10 07:05:14;;;;;;;18.90;5.25;;;;;;;16.15;87.20;99296.22;5039379;28;20018;-75
2022/04/10 07:07:39;;;;;;;18.60;6.07;;;;;;;16.22;88.05;99304.88;5043095;28;20056;-75
2022/04/10 07:10:05;;;;;;;21.65;5.85;;;;;;;16.22;89.22;99299.66;5043366;28;20073;-75
2022/04/10 07:12:31;;;;;;;22.65;6.03;;;;;;;16.24;89.46;99298.78;5041730;28;20467;-75
2022/04/10 07:15:00;;;;;;;25.50;6.13;;;;;;;16.17;88.43;99291.84;5043099;28;20440;-76
2022/04/10 07:17:25;;;;;;;18.40;4.88;;;;;;;16.31;87.16;99302.19;5043227;28;20481;-75
2022/04/10 07:19:51;;;;;;;19.83;5.45;;;;;;;16.26;85.59;99302.25;5041367;28;20061;-75
2022/04/10 07:25:01;;;;;;;21.67;5.68;;;;;;;16.29;85.01;99302.22;5040857;28;20504;-74
2022/04/10 07:27:27;;;;;;;18.35;4.68;;;;;;;16.23;84.33;99291.81;5041959;28;20021;-75
2022/04/10 07:29:52;;;;;;;18.70;5.68;;;;;;;16.28;84.54;99300.47;5043238;28;20579;-76
2022/04/10 07:32:18;;;;;;;18.05;5.45;;;;;;;16.32;84.04;99304.81;5041767;28;20099;-76
2022/04/10 07:34:43;;;;;;;21.95;5.03;;;;;;;16.11;84.15;99261.53;5041101;28;20126;-69
2022/04/10 07:37:08;;;;;;;19.58;4.90;;;;;;;16.25;84.34;99278.78;5041763;28;20029;-74
2022/04/10 07:39:34;;;;;;;18.95;5.20;;;;;;;16.39;85.81;99292.63;5041328;28;20036;-76
2022/04/10 07:41:59;;;;;;;16.40;4.95;;;;;;;16.33;83.87;99297.84;5042540;28;20021;-75
2022/04/10 07:44:25;;;;;;;13.98;4.35;;;;;;;16.37;86.80;99288.28;5042425;28;20140;-75
2022/04/10 07:49:35;;;;;;;18.45;4.90;;;;;;;16.45;84.81;99287.38;5038817;28;20040;-76
2022/04/10 07:52:03;;;;;;;13.32;3.78;;;;;;;16.47;85.61;99269.13;5041874;28;20472;-73
2022/04/10 07:54:28;;;;;;;18.17;4.88;;;;;;;16.44;85.58;99280.41;5042639;28;20034;-73
2022/04/10 07:56:54;;;;;;;21.38;5.80;;;;;;;16.48;83.08;99281.28;5040521;28;20091;-73
2022/04/10 07:59:19;;;;;;;17.45;5.13;;;;;;;16.52;83.99;99280.38;5041994;28;20048;-73
2022/04/10 08:01:45;;;;;;;17.02;4.72;;;;;;;16.56;86.24;99289.03;5042296;28;20060;-73
2022/04/10 08:04:10;;;;;;;16.83;4.50;;;;;;;16.48;84.38;99270.84;5040489;28;20017;-73
2022/04/10 08:06:36;;;;;;;14.45;5.03;;;;;;;16.59;85.57;99289.88;5042553;28;20122;-73
2022/04/10 08:09:02;;;;;;;19.55;4.93;;;;;;;16.53;84.08;99258.66;5041722;28;20022;-73
2022/04/10 08:11:28;;;;;;;16.52;5.10;;;;;;;16.50;83.64;99251.72;5040592;28;20116;-73
2022/04/10 08:13:53;;;;;;;17.08;4.68;;;;;;;16.71;81.95;99280.25;5042256;28;20017;-71
2022/04/10 08:16:19;;;;;;;18.50;4.85;;;;;;;16.71;83.33;99272.44;5041137;28;20025;-73
2022/04/10 08:18:44;;;;;;;16.52;4.38;;;;;;;16.80;81.46;99288.00;5041032;28;20115;-74
2022/04/10 08:21:10;;;;;;;15.82;4.93;;;;;;;16.78;80.84;99277.56;5042604;28;20021;-76
2022/04/10 08:23:35;;;;;;;16.63;4.18;;;;;;;16.86;79.80;99282.75;5040448;28;20126;-74
2022/04/10 08:26:01;;;;;;;17.60;4.80;;;;;;;16.92;78.54;99292.28;5041445;28;20017;-75
2022/04/10 08:28:27;;;;;;;17.10;4.50;;;;;;;17.01;80.85;99291.34;5042365;28;20105;-76
2022/04/10 08:30:52;;;;;;;17.55;4.68;;;;;;;17.06;78.29;99286.94;5041890;28;20121;-75
2022/04/10 08:33:18;;;;;;;17.48;4.47;;;;;;;17.08;77.38;99286.06;5040581;28;20030;-76
2022/04/10 08:35:43;;;;;;;19.33;5.45;;;;;;;17.09;79.52;99279.13;5040674;28;20033;-75
2022/04/10 08:38:09;;;;;;;17.88;5.03;;;;;;;17.21;78.74;99268.56;5042253;28;20021;-73
2022/04/10 08:40:35;;;;;;;17.85;5.22;;;;;;;17.26;81.36;99263.31;5040002;28;20117;-72
2022/04/10 08:43:02;;;;;;;18.98;4.55;;;;;;;17.29;77.79;99266.72;5041180;28;20556;-72
2022/04/10 08:45:28;;;;;;;15.63;4.40;;;;;;;17.13;78.91;99233.88;5041884;28;20473;-75
2022/04/10 08:47:55;;;;;;;17.42;5.00;;;;;;;17.41;80.45;99265.75;5039228;28;20034;-71
2022/04/10 08:50:22;;;;;;;17.70;4.32;;;;;;;17.35;77.89;99249.31;5040884;28;20017;-75
2022/04/10 08:52:52;;;;;;;16.83;5.22;;;;;;;17.55;79.18;99264.75;5041570;28;20029;-75
2022/04/10 08:55:18;;;;;;;;;;;;;;;17.67;76.75;99264.63;5019559;28;20029;-72
2022/04/10 08:57:44;;;;;;;13.95;5.10;;;;;;;17.77;78.08;99266.22;5050872;28;19973;-78
2022/04/10 09:00:10;;;;;;;13.52;4.30;;;;;;;17.87;75.54;99256.53;5050691;28;20041;-72
2022/04/10 09:02:50;;;;;;;17.00;5.22;;;;;;;17.92;75.15;99252.13;5013995;28;20029;-75
2022/04/10 09:05:22;;;;;;;21.58;5.50;;;;;;;17.88;74.57;99224.34;5015356;28;20413;-77
2022/04/10 09:08:11;;;;;;;14.50;4.78;;;;;;;18.01;77.23;99245.09;5011810;28;20099;-77
2022/04/10 09:11:00;;;;;;;15.20;3.80;;;;;;;18.05;72.93;99231.09;5017878;28;20132;-77
2022/04/10 09:13:46;;;;;;;19.27;4.70;;;;;;;18.08;73.43;99231.94;5014768;28;20121;-77
2022/04/10 09:16:19;;;;;;;14.98;4.93;;;;;;;18.24;76.60;99224.75;5020496;28;20175;-74
2022/04/10 09:19:01;;;;;;;17.23;4.85;;;;;;;18.36;74.07;99218.47;5024141;28;20033;-74
2022/04/10 09:21:33;;;;;;;12.65;4.22;;;;;;;18.52;73.96;99224.31;5025372;28;20025;-73
2022/04/10 09:24:09;;;;;;;16.15;4.60;;;;;;;18.73;67.18;99219.66;5014618;28;20075;-72
2022/04/10 09:26:45;;;;;;;12.63;3.97;;;;;;;18.82;68.68;99201.19;5011331;28;20029;-74
2022/04/10 09:29:11;;;;;;;13.63;4.03;;;;;;;18.91;68.62;99211.50;5009848;28;20111;-70
2022/04/10 09:31:37;;;;;;;14.30;3.45;;;;;;;19.00;67.99;99212.22;5009269;28;20512;-72
2022/04/10 09:34:06;;;;;;;13.15;4.40;;;;;;;19.35;66.62;99221.19;5009444;28;20113;-74
2022/04/10 09:36:47;;;;;;;14.20;4.05;;;;;;;19.49;63.00;99169.44;5009961;28;20030;-74
2022/04/10 09:39:33;;;;;;;12.82;3.92;;;;;;;19.67;61.89;99199.59;5009926;28;20025;-74
2022/04/10 09:42:10;;;;;;;15.77;3.50;;;;;;;19.46;62.13;99179.09;5009925;28;20025;-73
2022/04/10 09:44:39;;;;;;;14.02;4.10;;;;;;;19.35;64.40;99171.47;5010049;28;20061;-74
2022/04/10 09:47:07;;;;;;;13.82;4.13;;;;;;;19.43;64.90;99182.66;5009928;28;20072;-75
2022/04/10 09:49:34;;;;;;;16.55;4.03;;;;;;;19.43;62.89;99179.16;5009662;28;20062;-71
2022/04/10 09:52:00;;;;;;;14.57;4.30;;;;;;;19.32;65.03;99182.84;5009802;28;20053;-74
2022/04/10 09:54:32;;;;;;;12.75;3.70;;;;;;;19.39;63.22;99188.84;5009053;28;20034;-74
2022/04/10 09:57:02;;;;;;;16.42;3.75;;;;;;;19.40;62.47;99175.72;5009370;28;20025;-75
2022/04/10 09:59:34;;;;;;;13.27;3.72;;;;;;;19.42;59.95;99180.91;5012119;28;20480;-76
2022/04/10 10:02:03;;;;;;;15.93;3.88;;;;;;;19.38;63.65;99179.25;5012779;28;20042;-77
2022/04/10 10:04:29;;;;;;;12.68;3.35;;;;;;;19.33;62.10;99187.19;5013080;28;20033;-74
2022/04/10 10:06:56;;;;;;;14.90;4.45;;;;;;;19.31;61.93;99186.34;5012292;28;20044;-75
2022/04/10 10:09:22;;;;;;;14.15;3.97;;;;;;;19.28;61.04;99172.47;5012840;28;20101;-75
2022/04/10 10:11:48;;;;;;;12.30;3.95;;;;;;;19.34;61.66;99183.69;5012633;28;20130;-76
2022/04/10 10:14:16;;;;;;;11.82;3.50;;;;;;;19.04;64.01;99162.47;5012951;28;20069;-76
2022/04/10 10:16:43;;;;;;;17.23;4.32;;;;;;;19.00;60.99;99181.69;5016476;28;20060;-75
2022/04/10 10:19:10;;;;;;;19.73;10.77;;;;;;;18.96;65.11;99177.41;5031286;28;20053;-74
2022/04/10 10:21:36;;;;;;;13.75;3.58;;;;;;;18.92;63.70;99179.22;5031306;28;20056;-71
2022/04/10 10:24:04;;;;;;;17.90;5.50;;;;;;;18.90;66.22;99175.81;5030808;28;20025;-74
2022/04/10 10:26:41;;;;;;;15.55;4.50;;;;;;;18.74;61.96;99140.31;5031228;28;20037;-73
2022/04/10 10:29:21;;;;;;;11.52;3.53;;;;;;;18.89;62.25;99162.69;5031217;28;20033;-74
2022/04/10 10:31:49;;;;;;;17.42;4.90;;;;;;;18.96;63.33;99163.50;5025233;28;20500;-73
2022/04/10 10:34:15;;;;;;;13.10;4.65;;;;;;;18.91;67.98;99151.34;5014588;28;20034;-73
2022/04/10 10:36:41;;;;;;;20.48;8.82;;;;;;;18.75;68.03;99115.88;5015497;28;20516;-74
2022/04/10 10:39:07;;;;;;;70.30;49.53;;;;;;;18.93;67.36;99138.28;5012658;28;20093;-73
2022/04/10 10:41:35;;;;;;;91.05;57.70;;;;;;;18.97;67.36;99139.94;5013001;28;20099;-74
2022/04/10 10:44:18;;;;;;;25.90;15.50;;;;;;;18.84;65.19;99141.00;5012801;28;20054;-74
2022/04/10 10:47:02;;;;;;;106.15;72.03;;;;;;;18.78;66.15;99149.84;5012780;28;20032;-74
2022/04/10 10:49:29;;;;;;;16.40;6.32;;;;;;;18.72;64.57;99142.09;5013771;28;20097;-72
2022/04/10 10:51:56;;;;;;;14.35;6.95;;;;;;;18.68;66.91;99153.47;5012676;28;20038;-74
2022/04/10 10:54:29;;;;;;;14.90;6.38;;;;;;;18.62;72.31;99143.13;5011991;28;20025;-73
2022/04/10 10:56:55;;;;;;;18.50;9.20;;;;;;;18.82;68.16;99159.34;5011791;28;20037;-74
2022/04/10 10:59:25;;;;;;;14.98;4.45;;;;;;;18.94;66.49;99175.72;5012101;28;20030;-75
2022/04/10 11:01:59;;;;;;;33.03;5.65;;;;;;;18.84;65.87;99208.97;5012316;28;20029;-80
2022/04/10 11:04:29;;;;;;;129.60;15.95;;;;;;;17.73;61.58;99209.72;5014326;28;20057;-74
2022/04/10 11:07:10;;;;;;;31.15;9.38;;;;;;;17.06;63.54;99211.31;5011874;28;20029;-77
2022/04/10 11:09:51;;;;;;;13.60;8.45;;;;;;;16.45;65.25;99205.75;5010402;28;20146;-75
2022/04/10 11:12:22;;;;;;;17.25;9.13;;;;;;;16.14;65.91;99192.94;5026394;28;20109;-76
2022/04/10 11:14:51;;;;;;;22.55;8.63;;;;;;;15.88;65.91;99182.69;5012416;28;20025;-77
2022/04/10 11:17:21;;;;;;;15.57;9.73;;;;;;;15.78;67.27;99194.84;5011939;28;20400;-77
2022/04/10 11:19:55;;;;;;;15.98;9.25;;;;;;;15.50;69.31;99180.22;5012325;28;20030;-79
2022/04/10 11:22:22;;;;;;;16.80;9.98;;;;;;;15.40;69.41;99211.47;5012032;28;20022;-79
2022/04/10 11:24:58;;;;;;;30.00;11.68;;;;;;;15.28;70.24;99212.38;5010593;28;20099;-77
2022/04/10 11:27:56;;;;;;;50.33;14.57;;;;;;;15.02;73.47;99208.09;4994504;28;20426;-75
2022/04/10 11:30:33;;;;;;;23.52;12.65;;;;;;;14.92;74.33;99221.97;5012378;28;20962;-76